Time;durP1;ratioP1;P1;durP2;ratioP2;P2;SDS_P1;SDS_P2;PMS_P1;PMS_P2;Temp;Humidity;BMP_temperature;BMP_pressure;BME280_temperature;BME280_humidity;BME280_pressure;Samples;Min_cycle;Max_cycle;Signal;HPM_P1;HPM_P2
2022/12/24 00:00:24;;;;;;;17.30;10.65;;;5.40;99.90;;;;;;5088569;28;20028;-60
2022/12/24 00:02:49;;;;;;;18.75;9.93;;;5.50;99.90;;;;;;5100449;28;20641;-60
2022/12/24 00:05:15;;;;;;;14.52;9.60;;;5.40;99.90;;;;;;5088925;28;20043;-60
2022/12/24 00:07:41;;;;;;;15.85;9.57;;;5.50;99.90;;;;;;5089718;28;20028;-60
2022/12/24 00:10:08;;;;;;;18.08;9.52;;;5.50;99.90;;;;;;5090728;28;20566;-60
2022/12/24 00:12:33;;;;;;;20.23;9.52;;;5.50;99.90;;;;;;5092115;28;20034;-61
2022/12/24 00:14:59;;;;;;;16.65;10.32;;;5.50;99.90;;;;;;5089871;28;20102;-61
2022/12/24 00:17:24;;;;;;;17.38;10.65;;;5.50;99.90;;;;;;5097028;28;20036;-60
2022/12/24 00:19:50;;;;;;;20.00;11.07;;;5.50;99.90;;;;;;5092878;28;20032;-62
2022/12/24 00:22:15;;;;;;;15.93;9.35;;;5.50;99.90;;;;;;5103611;28;20085;-62
2022/12/24 00:24:41;;;;;;;22.10;9.57;;;5.50;99.90;;;;;;5094332;28;20558;-62
2022/12/24 00:27:06;;;;;;;18.75;10.85;;;5.50;99.90;;;;;;5091053;28;20028;-61
2022/12/24 00:29:32;;;;;;;21.55;11.10;;;5.50;99.90;;;;;;5085840;28;20118;-62
2022/12/24 00:31:58;;;;;;;20.00;10.00;;;5.50;99.90;;;;;;5102381;28;20491;-61
2022/12/24 00:34:24;;;;;;;16.33;9.77;;;5.50;99.90;;;;;;5102290;28;20039;-61
2022/12/24 00:36:50;;;;;;;15.35;9.70;;;5.50;99.90;;;;;;5100359;28;20032;-62
2022/12/24 00:39:16;;;;;;;16.42;8.82;;;5.50;99.90;;;;;;5088515;28;20473;-62
2022/12/24 00:41:41;;;;;;;13.45;8.85;;;5.50;99.90;;;;;;5087135;28;20036;-61
2022/12/24 00:44:09;;;;;;;16.75;9.98;;;5.50;99.90;;;;;;5092865;28;20040;-62
2022/12/24 00:46:36;;;;;;;18.17;9.13;;;5.40;99.90;;;;;;5099861;28;20027;-62
2022/12/24 00:49:03;;;;;;;15.18;8.68;;;5.40;99.90;;;;;;5102205;28;20080;-61
2022/12/24 00:51:29;;;;;;;15.40;8.70;;;5.50;99.90;;;;;;5096615;28;20084;-62
2022/12/24 00:53:55;;;;;;;16.33;8.48;;;5.40;99.90;;;;;;5091573;28;20028;-61
2022/12/24 00:56:21;;;;;;;18.60;10.07;;;5.40;99.90;;;;;;5096577;28;20109;-62
2022/12/24 00:58:46;;;;;;;14.05;8.70;;;5.40;99.90;;;;;;5091012;28;20102;-61
2022/12/24 01:01:12;;;;;;;14.70;8.48;;;5.50;99.90;;;;;;5094955;28;20020;-61
2022/12/24 01:03:38;;;;;;;16.55;8.93;;;5.40;99.90;;;;;;5088794;28;20036;-61
2022/12/24 01:06:07;;;;;;;16.23;9.02;;;5.40;99.90;;;;;;5095332;28;20042;-61
2022/12/24 01:08:33;;;;;;;16.00;8.38;;;5.50;99.90;;;;;;5075462;28;20544;-61
2022/12/24 01:11:01;;;;;;;15.55;9.20;;;5.50;99.90;;;;;;5102065;28;20035;-61
2022/12/24 01:13:27;;;;;;;15.52;8.90;;;5.40;99.90;;;;;;5090708;28;20045;-61
2022/12/24 01:15:53;;;;;;;14.15;8.65;;;5.40;99.90;;;;;;5096773;28;20126;-61
2022/12/24 01:18:19;;;;;;;14.30;9.65;;;5.40;99.90;;;;;;5086337;28;20073;-60
2022/12/24 01:20:45;;;;;;;16.73;8.95;;;5.40;99.90;;;;;;5077030;28;20142;-61
2022/12/24 01:23:10;;;;;;;19.10;9.90;;;5.40;99.90;;;;;;5099144;28;20740;-61
2022/12/24 01:25:39;;;;;;;15.77;9.57;;;5.40;99.90;;;;;;5091424;28;20595;-60
2022/12/24 01:28:05;;;;;;;15.80;9.48;;;5.40;99.90;;;;;;5080519;28;20134;-61
2022/12/24 01:30:31;;;;;;;17.85;9.95;;;5.40;99.90;;;;;;5090965;28;20036;-62
2022/12/24 01:32:57;;;;;;;15.23;8.80;;;5.40;99.90;;;;;;5085462;28;20672;-69
2022/12/24 01:35:22;;;;;;;17.05;9.43;;;5.40;99.90;;;;;;5097001;28;20028;-54
2022/12/24 01:37:48;;;;;;;14.18;8.90;;;5.40;99.90;;;;;;5090681;28;20027;-54
2022/12/24 01:45:55;;;;;;;15.45;9.18;;;5.40;99.90;;;;;;5082452;28;19965;-54
2022/12/24 01:48:32;;;;;;;;;;;5.40;99.90;;;;;;5081653;28;20028;-55
2022/12/24 01:51:07;;;;;;;17.08;9.73;;;5.40;99.90;;;;;;5107462;28;19911;-56
2022/12/24 01:53:36;;;;;;;20.27;10.70;;;5.40;99.90;;;;;;5086102;28;20120;-57
2022/12/24 01:56:03;;;;;;;21.27;10.32;;;5.40;99.90;;;;;;5107625;28;20107;-56
2022/12/24 01:58:29;;;;;;;16.80;9.90;;;5.40;99.90;;;;;;5085364;28;20036;-51
2022/12/24 02:00:54;;;;;;;20.50;10.95;;;5.40;99.90;;;;;;5106753;28;20027;-53
2022/12/24 02:03:20;;;;;;;16.70;9.82;;;5.40;99.90;;;;;;5085965;28;20444;-49
2022/12/24 02:05:52;;;;;;;21.83;11.13;;;5.40;99.90;;;;;;5088416;28;20113;-56
2022/12/24 02:08:18;;;;;;;18.48;11.00;;;5.50;99.90;;;;;;5090720;28;20081;-56
2022/12/24 02:10:48;;;;;;;19.75;10.80;;;5.40;99.90;;;;;;5106418;28;20039;-58
2022/12/24 02:13:18;;;;;;;18.73;10.32;;;5.40;99.90;;;;;;5071642;28;20223;-56
2022/12/24 02:16:04;;;;;;;17.63;11.00;;;5.40;99.90;;;;;;5107110;28;20551;-62
2022/12/24 02:18:52;;;;;;;21.17;11.93;;;5.40;99.90;;;;;;5081561;28;20032;-63
2022/12/24 02:21:47;;;;;;;22.98;12.00;;;5.40;99.90;;;;;;5083881;28;20032;-62
2022/12/24 02:24:41;;;;;;;22.38;11.95;;;5.40;99.90;;;;;;5066354;28;20484;-62
2022/12/24 02:27:21;;;;;;;22.13;11.80;;;5.40;99.90;;;;;;5066555;28;20396;-62
2022/12/24 02:30:18;;;;;;;23.60;11.50;;;5.40;99.90;;;;;;5069757;28;20492;-62
2022/12/24 02:32:54;;;;;;;21.30;11.00;;;5.40;99.90;;;;;;5099736;28;20086;-62
2022/12/24 02:35:29;;;;;;;21.05;11.98;;;5.40;99.90;;;;;;5074384;28;20016;-61
2022/12/24 02:38:13;;;;;;;22.13;11.80;;;5.40;99.90;;;;;;5089179;28;20023;-62
2022/12/24 02:40:45;;;;;;;18.92;11.98;;;5.40;99.90;;;;;;5067120;28;20032;-63
2022/12/24 02:43:17;;;;;;;24.88;13.13;;;5.40;99.90;;;;;;5071641;28;20031;-63
2022/12/24 02:45:47;;;;;;;22.90;12.35;;;5.40;99.90;;;;;;5107294;28;20031;-62
2022/12/24 02:48:15;;;;;;;28.10;12.50;;;5.40;99.90;;;;;;5071825;28;20050;-62
2022/12/24 02:51:04;;;;;;;20.15;11.45;;;5.50;99.90;;;;;;5107078;28;20494;-63
2022/12/24 02:53:30;;;;;;;23.88;12.25;;;5.50;99.90;;;;;;5077865;28;20023;-63
2022/12/24 02:56:05;;;;;;;23.73;12.82;;;5.40;99.90;;;;;;5108739;28;20059;-63
2022/12/24 02:58:49;;;;;;;16.67;9.27;;;5.40;99.90;;;;;;5078537;28;20020;-63
2022/12/24 03:01:43;;;;;;;23.17;12.85;;;5.50;99.90;;;;;;5088603;28;20416;-62
2022/12/24 03:04:38;;;;;;;23.38;13.88;;;5.50;99.90;;;;;;5088910;28;20487;-63
2022/12/24 03:07:34;;;;;;;27.27;13.15;;;5.40;99.90;;;;;;5065295;28;20032;-62
2022/12/24 03:10:17;;;;;;;24.10;12.32;;;5.40;99.90;;;;;;5084647;28;20124;-63
2022/12/24 03:13:01;;;;;;;22.30;12.57;;;5.40;99.90;;;;;;5068201;28;20404;-62
2022/12/24 03:15:28;;;;;;;23.48;13.10;;;5.40;99.90;;;;;;5068018;28;20020;-62
2022/12/24 03:17:58;;;;;;;23.73;12.05;;;5.40;99.90;;;;;;5105643;28;20369;-62
2022/12/24 03:20:31;;;;;;;22.58;12.13;;;5.40;99.90;;;;;;5108492;28;20476;-62
2022/12/24 03:22:57;;;;;;;20.77;11.68;;;5.40;99.90;;;;;;5067070;28;20059;-62
2022/12/24 03:25:24;;;;;;;21.38;11.52;;;5.40;99.90;;;;;;5100139;28;20044;-63
2022/12/24 03:27:51;;;;;;;23.48;13.18;;;5.40;99.90;;;;;;5104885;28;20037;-62
2022/12/24 03:30:17;;;;;;;21.45;13.05;;;5.40;99.90;;;;;;5108519;28;20095;-63
2022/12/24 03:32:43;;;;;;;21.52;12.52;;;5.40;99.90;;;;;;5088439;28;20470;-62
2022/12/24 03:35:10;;;;;;;20.13;11.45;;;5.40;99.90;;;;;;5105972;28;20495;-62
2022/12/24 03:37:36;;;;;;;20.45;11.27;;;5.40;99.90;;;;;;5086695;28;20024;-62
2022/12/24 03:40:03;;;;;;;21.13;12.40;;;5.40;99.90;;;;;;5107842;28;20028;-62
2022/12/24 03:42:29;;;;;;;21.75;12.25;;;5.50;99.90;;;;;;5086675;28;20496;-62
2022/12/24 03:44:54;;;;;;;24.05;12.23;;;5.50;99.90;;;;;;5107525;28;20027;-62
2022/12/24 03:47:20;;;;;;;23.25;13.05;;;5.40;99.90;;;;;;5085583;28;20037;-62
2022/12/24 03:49:45;;;;;;;20.35;12.70;;;5.40;99.90;;;;;;5107507;28;20118;-62
2022/12/24 03:52:11;;;;;;;23.90;12.75;;;5.40;99.90;;;;;;5086765;28;20024;-62
2022/12/24 03:54:36;;;;;;;21.25;12.05;;;5.40;99.90;;;;;;5107629;28;20436;-60
2022/12/24 03:57:02;;;;;;;19.08;10.88;;;5.40;99.90;;;;;;5086700;28;20370;-63
2022/12/24 03:59:28;;;;;;;22.50;12.10;;;5.40;99.90;;;;;;5107562;28;20059;-61
2022/12/24 04:01:53;;;;;;;17.58;10.35;;;5.30;99.90;;;;;;5086724;28;20069;-63
2022/12/24 04:04:19;;;;;;;21.13;11.30;;;5.30;99.90;;;;;;5107480;28;20027;-62
2022/12/24 04:06:44;;;;;;;19.70;10.98;;;5.30;99.90;;;;;;5081878;28;20035;-62
2022/12/24 04:09:10;;;;;;;19.63;10.73;;;5.40;99.90;;;;;;5107816;28;20119;-62
2022/12/24 04:11:35;;;;;;;20.17;11.48;;;5.30;99.90;;;;;;5086751;28;20036;-62
2022/12/24 04:14:01;;;;;;;20.75;11.13;;;5.30;99.90;;;;;;5100619;28;20106;-61
2022/12/24 04:16:26;;;;;;;19.88;11.52;;;5.30;99.90;;;;;;5094601;28;20080;-61
2022/12/24 04:18:52;;;;;;;20.98;12.65;;;5.30;99.90;;;;;;5107474;28;20028;-63
2022/12/24 04:21:17;;;;;;;18.10;10.93;;;5.30;99.90;;;;;;5086549;28;20027;-63
2022/12/24 04:23:43;;;;;;;19.58;11.00;;;5.30;99.90;;;;;;5107446;28;20028;-62
2022/12/24 04:26:11;;;;;;;20.33;11.73;;;5.30;99.90;;;;;;5086265;28;20048;-62
2022/12/24 04:28:37;;;;;;;17.35;9.82;;;5.20;99.90;;;;;;5107716;28;20110;-61
2022/12/24 04:31:06;;;;;;;20.73;11.50;;;5.20;99.90;;;;;;5086377;28;20036;-62
2022/12/24 04:33:33;;;;;;;17.23;11.07;;;5.20;99.90;;;;;;5107844;28;20069;-62
2022/12/24 04:36:00;;;;;;;18.63;10.10;;;5.30;99.90;;;;;;5087040;28;20031;-60
2022/12/24 04:38:26;;;;;;;18.33;10.68;;;5.20;99.90;;;;;;5091449;28;20028;-62
2022/12/24 04:41:04;;;;;;;19.95;11.18;;;5.30;99.90;;;;;;5102841;28;20035;-61
2022/12/24 04:43:30;;;;;;;20.52;10.70;;;5.20;99.90;;;;;;5091309;28;20024;-61
2022/12/24 04:45:55;;;;;;;20.83;11.00;;;5.20;99.90;;;;;;5102145;28;20407;-62
2022/12/24 04:48:21;;;;;;;22.15;11.73;;;5.20;99.90;;;;;;5089957;28;20024;-62
2022/12/24 04:50:46;;;;;;;21.02;12.02;;;5.20;99.90;;;;;;5103340;28;20105;-62
2022/12/24 04:53:13;;;;;;;21.48;10.32;;;5.20;99.90;;;;;;5091240;28;20024;-62
2022/12/24 04:55:45;;;;;;;18.77;11.02;;;5.10;99.90;;;;;;5104523;28;20553;-62
2022/12/24 04:58:12;;;;;;;19.67;10.50;;;5.20;99.90;;;;;;5091110;28;20012;-63
2022/12/24 05:00:39;;;;;;;21.83;11.52;;;5.20;99.90;;;;;;5104405;28;20024;-61
2022/12/24 05:03:04;;;;;;;18.83;10.13;;;5.20;99.90;;;;;;5091083;28;20020;-62
2022/12/24 05:05:30;;;;;;;20.15;10.73;;;5.20;99.90;;;;;;5096641;28;20514;-62
2022/12/24 05:07:55;;;;;;;19.65;9.65;;;5.20;99.90;;;;;;5091001;28;20039;-62
2022/12/24 05:10:21;;;;;;;17.48;10.45;;;5.20;99.90;;;;;;5106481;28;20039;-63
2022/12/24 05:12:46;;;;;;;21.77;11.10;;;5.20;99.90;;;;;;5090950;28;20353;-62
2022/12/24 05:15:12;;;;;;;16.92;9.27;;;5.20;99.90;;;;;;5107675;28;20023;-63
2022/12/24 05:17:37;;;;;;;18.13;9.43;;;5.20;99.90;;;;;;5090715;28;20067;-62
2022/12/24 05:20:03;;;;;;;15.85;9.38;;;5.20;99.90;;;;;;5110221;28;20028;-62
2022/12/24 05:27:58;;;;;;;19.30;9.20;;;5.30;99.90;;;;;;5090615;28;20052;-62
2022/12/24 05:30:23;;;;;;;21.65;10.38;;;5.30;99.90;;;;;;5104396;28;20030;-62
2022/12/24 05:32:49;;;;;;;16.63;8.43;;;5.30;99.90;;;;;;5090412;28;20028;-63
2022/12/24 05:35:14;;;;;;;16.23;8.82;;;5.30;99.90;;;;;;5106780;28;20031;-62
2022/12/24 05:37:40;;;;;;;15.98;9.70;;;5.30;99.90;;;;;;5090271;28;20480;-62
2022/12/24 05:40:06;;;;;;;21.48;9.75;;;5.30;99.90;;;;;;5109980;28;20049;-61
2022/12/24 05:42:32;;;;;;;19.92;8.90;;;5.30;99.90;;;;;;5070078;28;20556;-62
2022/12/24 05:44:57;;;;;;;18.45;9.10;;;5.30;99.90;;;;;;5109100;28;20123;-62
2022/12/24 05:47:23;;;;;;;14.45;8.30;;;5.30;99.90;;;;;;5087497;28;20058;-62
2022/12/24 05:49:48;;;;;;;14.43;8.70;;;5.30;99.90;;;;;;5109619;28;20623;-62
2022/12/24 05:52:14;;;;;;;16.95;9.52;;;5.30;99.90;;;;;;5088746;28;20036;-62
2022/12/24 05:54:39;;;;;;;15.73;8.70;;;5.30;99.90;;;;;;5109593;28;20107;-61
2022/12/24 05:57:05;;;;;;;18.00;8.57;;;5.30;99.90;;;;;;5088645;28;20395;-62
2022/12/24 05:59:30;;;;;;;18.83;10.35;;;5.30;99.90;;;;;;5109667;28;20036;-62
2022/12/24 06:01:55;;;;;;;15.50;8.52;;;5.30;99.90;;;;;;5087183;28;20043;-61
2022/12/24 06:04:21;;;;;;;20.90;9.82;;;5.30;99.90;;;;;;5109369;28;20111;-65
2022/12/24 06:06:46;;;;;;;17.52;9.80;;;5.30;99.90;;;;;;5079259;28;20036;-65
2022/12/24 06:09:12;;;;;;;19.60;8.70;;;5.30;99.90;;;;;;5109343;28;20476;-66
2022/12/24 06:11:37;;;;;;;17.00;8.88;;;5.30;99.90;;;;;;5088290;28;20103;-65
2022/12/24 06:14:03;;;;;;;14.80;8.35;;;5.30;99.90;;;;;;5109132;28;20031;-64
2022/12/24 06:16:29;;;;;;;13.50;8.75;;;5.30;99.90;;;;;;5088296;28;20483;-57
2022/12/24 06:18:54;;;;;;;16.67;9.15;;;5.30;99.90;;;;;;5109045;28;20036;-56
2022/12/24 06:21:20;;;;;;;17.25;9.65;;;5.40;99.90;;;;;;5088188;28;20024;-57
2022/12/24 06:23:46;;;;;;;14.05;8.43;;;5.40;99.90;;;;;;5109056;28;20042;-57
2022/12/24 06:26:14;;;;;;;16.17;8.88;;;5.30;99.90;;;;;;5087672;28;20067;-55
2022/12/24 06:28:40;;;;;;;14.52;8.20;;;5.40;99.90;;;;;;5109268;28;20422;-52
2022/12/24 06:31:11;;;;;;;18.27;9.60;;;5.30;99.90;;;;;;5087949;28;20027;-56
2022/12/24 06:33:36;;;;;;;15.73;8.40;;;5.30;99.90;;;;;;5068969;28;20048;-56
2022/12/24 06:36:06;;;;;;;18.48;8.75;;;5.40;99.90;;;;;;5106201;28;20035;-55
2022/12/24 06:38:31;;;;;;;14.77;8.60;;;5.40;99.90;;;;;;5089143;28;20028;-52
2022/12/24 06:40:57;;;;;;;17.83;9.85;;;5.40;99.90;;;;;;5099514;28;20095;-56
2022/12/24 06:43:23;;;;;;;19.25;9.68;;;5.30;99.90;;;;;;5089194;28;20415;-56
2022/12/24 06:45:48;;;;;;;15.13;8.50;;;5.40;99.90;;;;;;5100615;28;20077;-56
2022/12/24 06:48:14;;;;;;;14.40;7.95;;;5.40;99.90;;;;;;5088956;28;20021;-59
2022/12/24 06:50:40;;;;;;;17.63;8.52;;;5.40;99.90;;;;;;5094977;28;20024;-55
2022/12/24 06:53:06;;;;;;;17.52;8.80;;;5.40;99.90;;;;;;5088754;28;20105;-57
2022/12/24 06:55:31;;;;;;;17.08;9.77;;;5.40;99.90;;;;;;5098059;28;20049;-54
2022/12/24 06:57:57;;;;;;;14.05;8.75;;;5.40;99.90;;;;;;5107947;28;20046;-56
2022/12/24 07:00:23;;;;;;;15.88;8.88;;;5.40;99.90;;;;;;5080022;28;20804;-56
2022/12/24 07:02:48;;;;;;;21.05;9.07;;;5.40;99.90;;;;;;5075969;28;20035;-55
2022/12/24 07:05:14;;;;;;;16.40;9.10;;;5.50;99.90;;;;;;5086474;28;20424;-57
2022/12/24 07:07:42;;;;;;;19.92;10.35;;;5.40;99.90;;;;;;5093399;28;20053;-56
2022/12/24 07:10:11;;;;;;;16.90;8.75;;;5.40;99.90;;;;;;5105637;28;20057;-55
2022/12/24 07:12:37;;;;;;;18.02;8.50;;;5.40;99.90;;;;;;5087026;28;20031;-56
2022/12/24 07:15:03;;;;;;;16.55;9.27;;;5.40;99.90;;;;;;5090782;28;20036;-56
2022/12/24 07:17:28;;;;;;;16.77;9.02;;;5.50;99.90;;;;;;5107189;28;20032;-56
2022/12/24 07:19:53;;;;;;;14.82;7.90;;;5.50;99.90;;;;;;5084969;28;20400;-55
2022/12/24 07:22:19;;;;;;;17.00;9.43;;;5.50;99.90;;;;;;5106359;28;20031;-57
2022/12/24 07:24:44;;;;;;;20.23;9.18;;;5.50;99.90;;;;;;5090000;28;20511;-57
2022/12/24 07:27:10;;;;;;;16.67;9.15;;;5.50;99.90;;;;;;5108932;28;20041;-56
2022/12/24 07:29:35;;;;;;;17.30;8.45;;;5.50;99.90;;;;;;5098222;28;20074;-57
2022/12/24 07:32:01;;;;;;;16.55;8.57;;;5.50;99.90;;;;;;5089335;28;20028;-58
2022/12/24 07:34:26;;;;;;;17.35;8.50;;;5.60;99.90;;;;;;5106187;28;20043;-58
2022/12/24 07:36:52;;;;;;;18.05;8.75;;;5.60;99.90;;;;;;5087378;28;20032;-62
2022/12/24 07:39:17;;;;;;;17.75;8.57;;;5.60;99.90;;;;;;5107082;28;20032;-60
2022/12/24 07:41:43;;;;;;;15.60;9.20;;;5.60;99.90;;;;;;5089104;28;20032;-60
2022/12/24 07:44:14;;;;;;;19.17;9.38;;;5.60;99.90;;;;;;5087428;28;20032;-60
2022/12/24 07:46:39;;;;;;;17.13;10.05;;;5.60;99.90;;;;;;5107107;28;20499;-59
2022/12/24 07:49:05;;;;;;;20.23;9.98;;;5.60;99.90;;;;;;5087343;28;20028;-59
2022/12/24 07:51:30;;;;;;;17.05;9.10;;;5.60;99.90;;;;;;5108401;28;20122;-62
2022/12/24 07:53:56;;;;;;;14.82;8.43;;;5.60;99.90;;;;;;5087242;28;20047;-60
2022/12/24 07:56:21;;;;;;;16.13;8.52;;;5.60;99.90;;;;;;5108023;28;20096;-60
2022/12/24 07:58:49;;;;;;;15.07;8.65;;;5.70;99.90;;;;;;5087192;28;20671;-60
2022/12/24 08:01:14;;;;;;;17.65;8.73;;;5.70;99.90;;;;;;5108042;28;20390;-60
2022/12/24 08:03:40;;;;;;;18.02;10.18;;;5.70;99.90;;;;;;5087065;28;20032;-60
2022/12/24 08:06:05;;;;;;;15.82;10.38;;;5.70;99.90;;;;;;5103319;28;20115;-61
2022/12/24 08:08:31;;;;;;;18.08;10.15;;;5.70;99.90;;;;;;5085893;28;20031;-61
2022/12/24 08:11:02;;;;;;;16.95;9.93;;;5.70;99.90;;;;;;5092681;28;20115;-60
2022/12/24 08:13:27;;;;;;;19.30;10.38;;;5.60;99.90;;;;;;5095197;28;20107;-60
2022/12/24 08:15:53;;;;;;;15.80;9.57;;;5.60;99.90;;;;;;5110111;28;20102;-61
2022/12/24 08:18:19;;;;;;;29.98;15.30;;;5.60;99.90;;;;;;5089099;28;20028;-60
2022/12/24 08:20:44;;;;;;;23.95;12.02;;;5.50;99.90;;;;;;5110102;28;20051;-61
2022/12/24 08:23:10;;;;;;;17.92;10.60;;;5.60;99.90;;;;;;5099975;28;20038;-60
2022/12/24 08:25:35;;;;;;;18.10;10.15;;;5.60;99.90;;;;;;5099157;28;20044;-60
2022/12/24 08:28:01;;;;;;;17.45;10.45;;;5.60;99.90;;;;;;5099878;28;20399;-61
2022/12/24 08:30:27;;;;;;;15.38;8.52;;;5.70;99.90;;;;;;5092089;28;20028;-60
2022/12/24 08:32:53;;;;;;;17.65;9.00;;;5.70;99.90;;;;;;5109468;28;20106;-61
2022/12/24 08:35:19;;;;;;;18.00;9.55;;;5.70;99.90;;;;;;5092269;28;20043;-60
2022/12/24 08:37:44;;;;;;;20.77;9.18;;;5.70;99.90;;;;;;5109193;28;20487;-60
2022/12/24 08:40:11;;;;;;;17.80;10.43;;;5.80;99.90;;;;;;5098670;28;20108;-60
2022/12/24 08:42:36;;;;;;;15.73;9.15;;;5.80;99.90;;;;;;5111453;28;20042;-61
2022/12/24 08:45:02;;;;;;;16.05;8.65;;;5.80;99.90;;;;;;5100377;28;20075;-60
2022/12/24 08:47:28;;;;;;;15.15;8.57;;;5.80;99.90;;;;;;5092011;28;20082;-60
2022/12/24 08:49:53;;;;;;;15.02;8.20;;;5.90;99.90;;;;;;5109261;28;20032;-60
2022/12/24 08:52:19;;;;;;;16.13;9.07;;;5.90;99.90;;;;;;5090869;28;20511;-60
2022/12/24 08:54:44;;;;;;;20.88;10.65;;;5.80;99.90;;;;;;5109288;28;20054;-60
2022/12/24 08:57:10;;;;;;;15.95;9.65;;;5.80;99.90;;;;;;5110571;28;20201;-61
2022/12/24 08:59:35;;;;;;;20.35;10.07;;;5.80;99.90;;;;;;5096500;28;20027;-61
2022/12/24 09:02:01;;;;;;;18.05;9.02;;;5.80;99.90;;;;;;5111871;28;20540;-61
2022/12/24 09:04:26;;;;;;;19.63;9.80;;;5.80;99.90;;;;;;5094683;28;20027;-60
2022/12/24 09:06:52;;;;;;;15.43;8.48;;;5.80;99.90;;;;;;5109191;28;20028;-61
2022/12/24 09:09:18;;;;;;;19.83;10.90;;;5.80;99.90;;;;;;5087338;28;20065;-60
2022/12/24 09:11:44;;;;;;;16.15;8.70;;;5.80;99.90;;;;;;5104760;28;20125;-60
2022/12/24 09:14:09;;;;;;;15.90;8.30;;;5.80;99.90;;;;;;5095518;28;20057;-60
2022/12/24 09:16:35;;;;;;;13.07;7.65;;;5.90;99.90;;;;;;5101475;28;20028;-60
2022/12/24 09:19:00;;;;;;;24.35;12.38;;;5.90;99.90;;;;;;5095463;28;20028;-60
2022/12/24 09:21:26;;;;;;;16.10;9.93;;;5.90;99.90;;;;;;5105301;28;20024;-60
2022/12/24 09:23:51;;;;;;;15.00;9.10;;;5.80;99.90;;;;;;5091311;28;20023;-60
2022/12/24 09:26:21;;;;;;;14.93;9.10;;;5.90;99.90;;;;;;5107773;28;22721;-61
2022/12/24 09:28:47;;;;;;;16.85;9.52;;;5.90;99.90;;;;;;5111433;28;20049;-60
2022/12/24 09:31:13;;;;;;;18.55;10.02;;;5.90;99.90;;;;;;5090824;28;20024;-60
2022/12/24 09:33:40;;;;;;;20.15;10.10;;;5.90;99.90;;;;;;5091092;28;20035;-60
2022/12/24 09:36:06;;;;;;;16.88;8.85;;;5.90;99.90;;;;;;5107861;28;20142;-61
2022/12/24 09:38:33;;;;;;;16.20;8.57;;;5.90;99.90;;;;;;5111525;28;20192;-59
2022/12/24 09:41:00;;;;;;;16.20;8.13;;;5.90;99.90;;;;;;5092754;28;20028;-61
2022/12/24 09:43:30;;;;;;;14.82;7.70;;;6.00;99.90;;;;;;5091827;28;20401;-61
2022/12/24 09:46:12;;;;;;;16.23;9.02;;;5.90;99.90;;;;;;5085926;28;20028;-60
2022/12/24 09:48:42;;;;;;;16.77;9.77;;;5.90;99.90;;;;;;5105370;28;20047;-61
2022/12/24 09:51:10;;;;;;;14.80;8.40;;;5.90;99.90;;;;;;5093914;28;20028;-60
2022/12/24 09:53:44;;;;;;;15.63;9.48;;;5.90;99.90;;;;;;5091580;28;20036;-61
2022/12/24 09:56:23;;;;;;;16.13;9.18;;;5.90;99.90;;;;;;5088438;28;20629;-61
2022/12/24 09:59:04;;;;;;;16.90;8.93;;;5.90;99.90;;;;;;5076369;28;20770;-61
2022/12/24 10:01:32;;;;;;;12.18;7.47;;;5.90;99.90;;;;;;5081924;28;20575;-62
2022/12/24 10:04:12;;;;;;;11.13;6.57;;;5.90;99.90;;;;;;5091831;28;20433;-61
2022/12/24 10:06:44;;;;;;;11.68;6.63;;;6.00;99.90;;;;;;5079317;28;20031;-62
2022/12/24 10:09:20;;;;;;;13.30;6.32;;;6.00;99.90;;;;;;5087873;28;20751;-61
2022/12/24 10:11:54;;;;;;;;;;;6.10;99.90;;;;;;5082735;28;20031;-59
2022/12/24 10:14:38;;;;;;;9.18;5.82;;;6.10;99.90;;;;;;5099436;28;19958;-51
2022/12/24 10:17:27;;;;;;;12.90;7.10;;;6.10;99.90;;;;;;5092043;28;20081;-49
2022/12/24 10:20:10;;;;;;;12.80;7.68;;;6.10;99.90;;;;;;5084015;28;20036;-50
2022/12/24 10:23:00;;;;;;;14.18;7.82;;;6.10;99.90;;;;;;5085744;28;20446;-49
2022/12/24 10:25:33;;;;;;;11.27;6.45;;;6.10;99.90;;;;;;5075182;28;20119;-53
2022/12/24 10:28:01;;;;;;;13.45;6.95;;;6.20;99.90;;;;;;5092855;28;20020;-54
2022/12/24 10:30:27;;;;;;;10.80;6.47;;;6.20;99.90;;;;;;5096212;28;20127;-51
2022/12/24 10:32:54;;;;;;;14.48;8.82;;;6.20;99.90;;;;;;5090067;28;20619;-51
2022/12/24 10:35:31;;;;;;;11.85;6.95;;;6.20;99.90;;;;;;5087870;28;20036;-48
2022/12/24 10:37:57;;;;;;;11.88;6.97;;;6.20;99.90;;;;;;5079722;28;20107;-50
2022/12/24 10:40:36;;;;;;;11.18;6.97;;;6.20;99.90;;;;;;5088698;28;20103;-48
2022/12/24 10:43:18;;;;;;;12.05;7.45;;;6.30;99.90;;;;;;5084817;28;20102;-52
2022/12/24 10:45:47;;;;;;;10.75;6.18;;;6.30;99.90;;;;;;5077546;28;20166;-50
2022/12/24 10:48:28;;;;;;;11.82;6.43;;;6.30;99.90;;;;;;5077688;28;20036;-50
2022/12/24 10:51:02;;;;;;;8.05;5.35;;;6.40;99.90;;;;;;5078215;28;20037;-54
2022/12/24 10:53:38;;;;;;;10.48;5.50;;;6.40;99.90;;;;;;5090440;28;20793;-47
2022/12/24 10:56:07;;;;;;;12.50;6.57;;;6.50;99.90;;;;;;5082680;28;20024;-48
2022/12/24 10:58:33;;;;;;;10.27;5.30;;;6.60;99.90;;;;;;5090256;28;20384;-49
2022/12/24 11:00:58;;;;;;;8.02;5.30;;;6.60;99.90;;;;;;5084390;28;20028;-53
2022/12/24 11:03:30;;;;;;;14.35;7.00;;;6.70;99.90;;;;;;5085359;28;20031;-47
2022/12/24 11:06:00;;;;;;;11.07;6.43;;;6.80;99.90;;;;;;5097597;28;20578;-49
2022/12/24 11:08:26;;;;;;;9.05;5.18;;;6.80;99.90;;;;;;5088218;28;20099;-50
2022/12/24 11:10:58;;;;;;;8.85;5.68;;;6.80;99.90;;;;;;5092630;28;20528;-47
2022/12/24 11:13:38;;;;;;;10.52;6.03;;;6.90;99.90;;;;;;5091134;28;20020;-49
2022/12/24 11:16:25;;;;;;;9.30;5.60;;;6.90;99.90;;;;;;5079652;28;20739;-49
2022/12/24 11:18:58;;;;;;;9.13;5.78;;;6.90;99.90;;;;;;5092446;28;20030;-51
2022/12/24 11:21:30;;;;;;;7.45;4.88;;;6.90;99.90;;;;;;5084811;28;20028;-48
2022/12/24 11:24:12;;;;;;;11.32;6.55;;;7.00;99.90;;;;;;5091160;28;20106;-49
2022/12/24 11:26:39;;;;;;;9.15;5.53;;;7.00;99.90;;;;;;5082589;28;20067;-47
2022/12/24 11:29:22;;;;;;;10.35;5.72;;;7.00;99.90;;;;;;5094967;28;20496;-48
2022/12/24 11:31:49;;;;;;;10.70;6.53;;;7.00;99.90;;;;;;5085052;28;20080;-49
2022/12/24 11:34:17;;;;;;;10.48;6.70;;;7.00;99.90;;;;;;5080092;28;20052;-48
2022/12/24 11:36:43;;;;;;;11.73;7.43;;;7.00;99.90;;;;;;5086691;28;20027;-49
2022/12/24 11:39:21;;;;;;;12.00;7.15;;;7.10;99.90;;;;;;5087065;28;20162;-49
2022/12/24 11:41:47;;;;;;;11.93;6.43;;;7.00;99.90;;;;;;5083908;28;20032;-49
2022/12/24 11:44:13;;;;;;;11.05;6.45;;;7.00;99.90;;;;;;5098965;28;20032;-49
2022/12/24 11:46:42;;;;;;;12.50;7.18;;;7.10;99.90;;;;;;5086270;28;20055;-46
2022/12/24 11:49:10;;;;;;;15.23;7.93;;;7.10;99.90;;;;;;5093395;28;20029;-51
2022/12/24 11:51:37;;;;;;;13.40;7.35;;;7.10;99.90;;;;;;5089488;28;20055;-47
2022/12/24 11:54:18;;;;;;;11.95;7.45;;;7.10;99.90;;;;;;5089058;28;20047;-47
2022/12/24 11:56:47;;;;;;;10.10;5.55;;;7.20;99.90;;;;;;5081942;28;20123;-49
2022/12/24 11:59:47;;;;;;;13.10;7.63;;;7.10;99.90;;;;;;5095393;28;20109;-49
2022/12/24 12:02:27;;;;;;;13.95;7.28;;;7.10;99.90;;;;;;5076232;28;20027;-46
2022/12/24 12:04:58;;;;;;;11.75;6.88;;;7.20;99.90;;;;;;5090686;28;20028;-49
2022/12/24 12:07:25;;;;;;;17.98;8.23;;;7.20;99.90;;;;;;5089629;28;20111;-47
2022/12/24 12:09:59;;;;;;;19.92;8.25;;;7.20;99.90;;;;;;5095449;28;20028;-47
2022/12/24 12:12:33;;;;;;;18.55;8.25;;;7.30;99.90;;;;;;5093507;28;20032;-48
2022/12/24 12:15:16;;;;;;;16.00;8.35;;;7.30;99.90;;;;;;5086164;28;20074;-48
2022/12/24 12:17:59;;;;;;;13.68;7.95;;;7.30;99.90;;;;;;5089221;28;20062;-50
2022/12/24 12:20:31;;;;;;;17.15;7.30;;;7.40;99.90;;;;;;5089597;28;20028;-47
2022/12/24 12:23:20;;;;;;;13.00;7.10;;;7.40;99.90;;;;;;5081439;28;20040;-47
2022/12/24 12:26:23;;;;;;;14.13;8.20;;;7.40;99.90;;;;;;5089097;28;20934;-51
2022/12/24 12:29:03;;;;;;;12.25;7.55;;;7.40;99.90;;;;;;5088936;28;20114;-47
2022/12/24 12:31:43;;;;;;;15.48;7.55;;;7.50;99.90;;;;;;5090646;28;20065;-50
2022/12/24 12:34:19;;;;;;;11.65;6.80;;;7.50;99.90;;;;;;5084676;28;20092;-49
2022/12/24 12:36:49;;;;;;;13.32;8.38;;;7.50;99.90;;;;;;5093316;28;20385;-49
2022/12/24 12:39:15;;;;;;;17.15;8.65;;;7.50;99.90;;;;;;5085736;28;20480;-48
2022/12/24 12:41:57;;;;;;;13.38;8.30;;;7.50;99.90;;;;;;5081976;28;20062;-47
2022/12/24 12:45:00;;;;;;;14.43;7.90;;;7.50;99.90;;;;;;5095368;28;20110;-46
2022/12/24 12:48:00;;;;;;;16.10;8.95;;;7.60;99.90;;;;;;5088345;28;20057;-48
2022/12/24 12:50:25;;;;;;;19.55;10.13;;;7.60;99.90;;;;;;5087015;28;20051;-47
2022/12/24 12:53:12;;;;;;;15.00;9.13;;;7.60;99.90;;;;;;5104676;28;20058;-47
2022/12/24 12:55:57;;;;;;;16.52;9.75;;;7.60;99.90;;;;;;5104610;28;20080;-50
2022/12/24 12:58:47;;;;;;;17.15;10.05;;;7.60;99.90;;;;;;5089820;28;20114;-48
2022/12/24 13:01:29;;;;;;;18.30;9.93;;;7.60;99.90;;;;;;5087436;28;20508;-48
2022/12/24 13:04:33;;;;;;;19.77;11.23;;;7.60;99.90;;;;;;5089089;28;20172;-46
2022/12/24 13:07:20;;;;;;;17.67;9.25;;;7.70;99.90;;;;;;5052090;28;20044;-49